Time;durP1;ratioP1;P1;durP2;ratioP2;P2;SDS_P1;SDS_P2;PMS_P1;PMS_P2;Temp;Humidity;BMP_temperature;BMP_pressure;BME280_temperature;BME280_humidity;BME280_pressure;Samples;Min_cycle;Max_cycle;Signal;HPM_P1;HPM_P2
2022/09/17 00:01:41;;;;;;;6.40;1.98;;;;;;;20.07;78.38;99481.56;5026420;28;20044;-80
2022/09/17 00:04:07;;;;;;;6.97;2.60;;;;;;;19.81;78.07;99436.75;5026502;28;20044;-80
2022/09/17 00:06:34;;;;;;;7.35;2.10;;;;;;;19.99;78.28;99464.19;5027386;28;20037;-79
2022/09/17 00:09:00;;;;;;;15.35;2.03;;;;;;;20.02;78.88;99481.81;5029659;28;20053;-79
2022/09/17 00:11:28;;;;;;;5.82;2.10;;;;;;;20.02;79.84;99477.34;5018950;28;20764;-79
2022/09/17 00:13:56;;;;;;;7.97;2.33;;;;;;;19.32;80.14;99380.78;5029622;28;20065;-80
2022/09/17 00:16:30;;;;;;;7.65;2.58;;;;;;;19.89;79.98;99473.59;5028785;28;20120;-80
2022/09/17 00:18:57;;;;;;;8.40;2.60;;;;;;;19.85;79.42;99480.03;5027121;28;20762;-79
2022/09/17 00:21:24;;;;;;;9.68;2.05;;;;;;;19.45;79.68;99404.94;5012463;28;20137;-79
2022/09/17 00:23:58;;;;;;;7.85;2.13;;;;;;;19.69;80.56;99452.50;5029191;28;20115;-80
2022/09/17 00:26:24;;;;;;;10.02;2.15;;;;;;;19.74;80.32;99464.66;5011686;28;20100;-79
2022/09/17 00:28:52;;;;;;;13.82;2.50;;;;;;;19.77;81.29;99463.63;5029654;28;20049;-78
2022/09/17 00:31:18;;;;;;;4.78;1.77;;;;;;;19.03;80.65;99341.56;5029815;28;20041;-78
2022/09/17 00:33:44;;;;;;;9.25;1.70;;;;;;;19.49;81.52;99429.59;5012180;28;20052;-80
2022/09/17 00:36:10;;;;;;;8.40;3.67;;;;;;;19.53;81.64;99441.81;5029927;28;20046;-79
2022/09/17 00:38:36;;;;;;;4.53;2.00;;;;;;;19.35;82.39;99431.16;5029655;28;20045;-78
2022/09/17 00:41:03;;;;;;;7.40;2.35;;;;;;;19.52;82.45;99459.53;5029910;28;20119;-78
2022/09/17 00:43:40;;;;;;;3.70;2.05;;;;;;;19.40;83.29;99466.38;5023144;28;20072;-79
2022/09/17 00:46:23;;;;;;;4.90;1.67;;;;;;;19.34;82.91;99432.13;5003597;28;20042;-79
2022/09/17 00:48:50;;;;;;;5.03;1.48;;;;;;;18.72;81.17;99321.84;4989715;28;20117;-79
2022/09/17 00:51:20;;;;;;;5.68;1.95;;;;;;;19.37;82.27;99428.44;5002101;28;20069;-79
2022/09/17 00:53:46;;;;;;;4.78;1.73;;;;;;;19.44;81.77;99461.75;5009133;28;20072;-79
2022/09/17 00:56:21;;;;;;;8.77;1.70;;;;;;;18.83;82.06;99339.94;5009342;28;20510;-79
2022/09/17 00:58:49;;;;;;;4.32;1.85;;;;;;;19.33;82.95;99440.16;4991139;28;20832;-80
2022/09/17 01:01:14;;;;;;;8.02;1.60;;;;;;;19.39;82.77;99456.69;5009288;28;20046;-80
2022/09/17 01:03:40;;;;;;;5.22;1.23;;;;;;;18.63;83.56;99331.13;4991869;28;20037;-78
2022/09/17 01:06:11;;;;;;;7.43;2.05;;;;;;;19.40;81.84;99469.03;5008882;28;20116;-79
2022/09/17 01:08:44;;;;;;;3.88;2.22;;;;;;;19.38;81.65;99476.22;5009357;28;20128;-79
2022/09/17 01:11:35;;;;;;;5.97;1.98;;;;;;;19.37;81.17;99466.53;5008923;28;20049;-78
2022/09/17 01:14:31;;;;;;;6.82;2.00;;;;;;;19.48;81.19;99471.31;5008877;28;20050;-79
2022/09/17 01:17:09;;;;;;;10.20;2.05;;;;;;;19.51;81.38;99484.44;4988888;28;20418;-79
2022/09/17 01:20:00;;;;;;;3.70;0.95;;;;;;;19.41;82.80;99480.56;4991062;28;20362;-79
2022/09/17 01:22:44;;;;;;;3.08;1.30;;;;;;;19.33;83.20;99474.75;5008703;28;20803;-79
2022/09/17 01:25:21;;;;;;;3.63;0.85;;;;;;;19.33;83.44;99480.94;5008382;28;20101;-79
2022/09/17 01:28:05;;;;;;;5.57;1.77;;;;;;;19.26;83.06;99484.84;4990898;28;20030;-79
2022/09/17 01:30:40;;;;;;;5.85;1.17;;;;;;;19.33;82.04;99498.69;5009161;28;20065;-78
2022/09/17 01:33:05;;;;;;;2.35;1.10;;;;;;;19.26;82.16;99478.66;5008612;28;20050;-78
2022/09/17 01:35:49;;;;;;;4.05;1.02;;;;;;;19.36;82.38;99483.44;5008637;28;20452;-79
2022/09/17 01:38:26;;;;;;;2.78;1.27;;;;;;;19.38;81.36;99478.03;5008529;28;20061;-78
2022/09/17 01:41:15;;;;;;;4.57;1.42;;;;;;;19.12;80.70;99435.00;5008376;28;20054;-79
2022/09/17 01:44:23;;;;;;;4.18;1.10;;;;;;;19.37;81.42;99469.19;5015471;28;20057;-78
2022/09/17 01:47:10;;;;;;;10.20;1.92;;;;;;;19.24;81.50;99444.16;5012551;28;20201;-78
2022/09/17 01:49:38;;;;;;;3.58;1.00;;;;;;;18.60;83.25;99336.59;5026856;28;20450;-79
2022/09/17 01:52:04;;;;;;;7.00;1.55;;;;;;;19.28;83.54;99471.47;5028396;28;20095;-78
2022/09/17 01:54:36;;;;;;;3.78;1.13;;;;;;;19.08;82.43;99444.09;5028240;28;20044;-79
2022/09/17 01:57:13;;;;;;;5.80;1.98;;;;;;;18.61;83.82;99353.41;5027970;28;20049;-78
2022/09/17 01:59:54;;;;;;;2.92;1.13;;;;;;;19.03;84.92;99450.56;5027872;28;20037;-80
2022/09/17 02:02:19;;;;;;;13.23;1.88;;;;;;;19.07;85.04;99460.97;5027846;28;20029;-78
2022/09/17 02:04:57;;;;;;;3.05;1.42;;;;;;;19.06;84.33;99445.09;5028058;28;20058;-80
2022/09/17 02:07:24;;;;;;;4.15;1.17;;;;;;;19.04;84.12;99447.84;5027904;28;20064;-78
2022/09/17 02:10:22;;;;;;;3.90;1.63;;;;;;;19.14;84.38;99454.41;5027927;28;20203;-79
2022/09/17 02:12:55;;;;;;;5.80;1.60;;;;;;;18.89;84.06;99428.19;4995950;28;20108;-78
2022/09/17 02:15:31;;;;;;;8.73;1.80;;;;;;;19.04;84.88;99454.97;4991320;28;20058;-79
2022/09/17 02:18:07;;;;;;;4.50;1.35;;;;;;;18.06;85.12;99301.22;5006171;28;20581;-78
2022/09/17 02:20:47;;;;;;;6.88;1.65;;;;;;;18.92;85.24;99451.97;5007648;28;20100;-79
2022/09/17 02:23:19;;;;;;;5.10;1.17;;;;;;;18.75;85.27;99428.88;5008690;28;20459;-78
2022/09/17 02:25:56;;;;;;;3.63;1.45;;;;;;;18.44;85.14;99376.34;5025587;28;20073;-78
2022/09/17 02:28:32;;;;;;;4.63;1.17;;;;;;;18.23;84.44;99327.81;5027315;28;20109;-77
2022/09/17 02:30:57;;;;;;;5.93;1.60;;;;;;;18.08;84.33;99302.88;5008636;28;20259;-78
2022/09/17 02:33:24;;;;;;;3.53;1.02;;;;;;;17.90;85.16;99291.34;5027724;28;20033;-78
2022/09/17 02:35:50;;;;;;;3.13;0.80;;;;;;;18.82;84.62;99448.03;5027111;28;20109;-79
2022/09/17 02:38:26;;;;;;;3.05;1.20;;;;;;;17.83;85.09;99284.59;5027172;28;20041;-77
2022/09/17 02:41:15;;;;;;;7.30;1.65;;;;;;;18.00;85.40;99317.44;5009122;28;20073;-79
2022/09/17 02:43:51;;;;;;;2.13;1.02;;;;;;;17.85;85.72;99290.72;5026586;28;20059;-79
2022/09/17 02:46:41;;;;;;;6.38;1.63;;;;;;;18.79;85.36;99424.28;5019659;28;20045;-79
2022/09/17 02:49:25;;;;;;;6.53;1.40;;;;;;;18.41;85.73;99380.97;5000704;28;20128;-79
2022/09/17 02:52:35;;;;;;;5.18;1.17;;;;;;;18.80;84.88;99443.72;5032614;28;20068;-80
2022/09/17 02:55:12;;;;;;;6.03;1.75;;;;;;;18.78;84.86;99441.16;5000248;28;20068;-77
2022/09/17 02:57:46;;;;;;;3.83;1.55;;;;;;;18.82;84.21;99420.59;5033678;28;20037;-79
2022/09/17 03:00:18;;;;;;;6.95;1.60;;;;;;;17.87;83.64;99262.31;5027638;28;20075;-79
2022/09/17 03:02:58;;;;;;;4.15;1.75;;;;;;;17.31;83.20;99173.00;5009368;28;20059;-79
2022/09/17 03:05:26;;;;;;;3.17;1.23;;;;;;;18.83;84.45;99417.88;5027131;28;20045;-79
2022/09/17 03:07:54;;;;;;;10.02;1.45;;;;;;;18.70;84.33;99414.06;5027277;28;20137;-79
2022/09/17 03:10:20;;;;;;;3.45;1.10;;;;;;;18.48;84.17;99372.63;5026893;28;20033;-78
2022/09/17 03:12:45;;;;;;;4.70;0.80;;;;;;;18.00;82.86;99274.97;5026982;28;20102;-77
2022/09/17 03:15:11;;;;;;;3.97;1.85;;;;;;;18.13;82.25;99287.56;5027186;28;20034;-77
2022/09/17 03:17:36;;;;;;;8.65;1.63;;;;;;;17.86;81.59;99242.03;5002614;28;20038;-77
2022/09/17 03:20:03;;;;;;;3.42;1.00;;;;;;;18.84;82.13;99400.13;5007169;28;20060;-78
2022/09/17 03:22:29;;;;;;;4.72;1.17;;;;;;;18.28;82.02;99285.94;5007272;28;20042;-79
2022/09/17 03:24:55;;;;;;;9.90;1.15;;;;;;;18.76;81.47;99356.19;5005097;28;20030;-80
2022/09/17 03:27:20;;;;;;;8.57;1.23;;;;;;;18.96;81.00;99380.88;5027315;28;20076;-78
2022/09/17 03:29:46;;;;;;;3.45;1.00;;;;;;;18.07;82.53;99236.56;5021493;28;20046;-78
2022/09/17 03:32:11;;;;;;;5.18;1.52;;;;;;;18.92;83.01;99374.03;5023626;28;20552;-78
2022/09/17 03:34:36;;;;;;;6.60;2.10;;;;;;;18.85;83.13;99369.97;5026727;28;20397;-78
2022/09/17 03:37:02;;;;;;;8.77;1.48;;;;;;;18.12;82.40;99254.00;5026654;28;20037;-79
2022/09/17 03:39:28;;;;;;;4.03;1.95;;;;;;;18.79;82.19;99347.19;5026528;28;20092;-79
2022/09/17 03:41:54;;;;;;;4.18;1.30;;;;;;;18.66;83.95;99333.66;5011150;28;20566;-79
2022/09/17 03:44:21;;;;;;;4.97;1.58;;;;;;;18.80;84.03;99361.34;5029957;28;20056;-78
2022/09/17 03:46:47;;;;;;;6.97;1.60;;;;;;;18.65;83.81;99349.66;5023364;28;20132;-78
2022/09/17 03:49:12;;;;;;;7.93;1.70;;;;;;;17.99;83.92;99241.41;5029354;28;20048;-79
2022/09/17 03:51:38;;;;;;;8.00;1.77;;;;;;;18.41;83.84;99293.31;5030707;28;20052;-80
2022/09/17 03:54:03;;;;;;;7.38;1.80;;;;;;;18.56;84.38;99327.91;5029736;28;20439;-79
2022/09/17 03:56:29;;;;;;;7.30;1.70;;;;;;;18.79;84.10;99349.84;5029784;28;20077;-79
2022/09/17 03:58:59;;;;;;;10.20;2.28;;;;;;;18.60;82.96;99331.28;5023002;28;20041;-78
2022/09/17 04:01:25;;;;;;;3.95;1.23;;;;;;;18.36;84.07;99298.84;5030483;28;20041;-78
2022/09/17 04:03:51;;;;;;;9.23;2.10;;;;;;;18.48;84.37;99316.84;5020997;28;20026;-79
2022/09/17 04:06:16;;;;;;;7.25;1.70;;;;;;;18.61;84.29;99324.19;5044582;28;20037;-80
2022/09/17 04:08:42;;;;;;;6.70;1.85;;;;;;;18.54;83.87;99313.88;5029814;28;20083;-79
2022/09/17 04:11:08;;;;;;;6.47;1.10;;;;;;;18.61;82.63;99313.53;5029492;28;20481;-78
2022/09/17 04:13:35;;;;;;;7.10;1.77;;;;;;;18.04;84.14;99218.16;5029670;28;20052;-79
2022/09/17 04:16:01;;;;;;;3.05;1.33;;;;;;;18.46;83.37;99302.75;5024783;28;20069;-78
2022/09/17 04:18:26;;;;;;;6.90;1.45;;;;;;;18.75;83.50;99329.66;4991272;28;20036;-79
2022/09/17 04:20:53;;;;;;;7.15;1.73;;;;;;;18.29;83.46;99260.28;5009803;28;20405;-78
2022/09/17 04:23:19;;;;;;;8.35;1.67;;;;;;;18.77;83.65;99347.25;5013074;28;20050;-78
2022/09/17 04:25:44;;;;;;;9.80;2.08;;;;;;;17.94;83.06;99188.56;5029116;28;20057;-78
2022/09/17 04:28:10;;;;;;;5.07;1.58;;;;;;;18.80;83.43;99332.97;5029723;28;20477;-78
2022/09/17 04:30:36;;;;;;;12.88;2.58;;;;;;;18.85;83.69;99338.91;5030205;28;20030;-79
2022/09/17 04:33:02;;;;;;;15.65;2.88;;;;;;;18.00;84.32;99195.34;5029670;28;20053;-79
2022/09/17 04:35:28;;;;;;;13.25;2.97;;;;;;;18.58;85.43;99300.44;5011506;28;20115;-78
2022/09/17 04:37:57;;;;;;;21.40;3.92;;;;;;;18.58;86.02;99311.91;5029162;28;20420;-78
2022/09/17 04:40:24;;;;;;;14.75;2.42;;;;;;;17.57;85.91;99147.03;5029040;28;20073;-78
2022/09/17 04:43:02;;;;;;;15.68;2.80;;;;;;;18.71;86.24;99334.28;5028821;28;20037;-79
2022/09/17 04:45:29;;;;;;;10.00;2.80;;;;;;;18.74;86.57;99352.72;5029036;28;20057;-77
2022/09/17 04:47:55;;;;;;;13.95;2.53;;;;;;;18.14;85.40;99241.50;5009941;28;20042;-78
2022/09/17 04:50:21;;;;;;;5.93;1.88;;;;;;;18.73;85.51;99302.28;5017355;28;20063;-79
2022/09/17 04:52:47;;;;;;;10.60;2.60;;;;;;;18.45;84.76;99242.63;5034542;28;20147;-79
2022/09/17 04:55:15;;;;;;;10.65;2.10;;;;;;;18.92;84.41;99337.66;5028448;28;20052;-78
2022/09/17 04:57:48;;;;;;;8.82;2.95;;;;;;;18.89;85.96;99321.00;5029290;28;20041;-79
2022/09/17 05:00:14;;;;;;;;;;;;;;;18.97;85.97;99329.44;5029578;28;20072;-79
2022/09/17 05:02:44;;;;;;;14.63;2.60;;;;;;;18.26;86.21;99189.59;5028386;28;19921;-79
2022/09/17 05:05:09;;;;;;;7.63;3.03;;;;;;;18.89;86.16;99289.94;5028447;28;20104;-78
2022/09/17 05:07:38;;;;;;;22.67;3.63;;;;;;;18.24;85.95;99169.31;5029000;28;20037;-79
2022/09/17 05:10:04;;;;;;;21.42;2.88;;;;;;;19.27;85.45;99319.00;5029253;28;20045;-77
2022/09/17 05:12:29;;;;;;;17.83;4.35;;;;;;;18.59;85.20;99187.88;5028754;28;20021;-80
2022/09/17 05:14:55;;;;;;;13.80;3.88;;;;;;;19.37;85.43;99298.94;5028230;28;20049;-77
2022/09/17 05:17:26;;;;;;;14.18;3.92;;;;;;;19.59;84.51;99321.69;5011324;28;20053;-79
2022/09/17 05:19:54;;;;;;;25.48;4.20;;;;;;;19.61;85.69;99311.84;5008579;28;20058;-79
2022/09/17 05:22:20;;;;;;;11.77;3.35;;;;;;;19.75;85.27;99321.75;5008737;28;20061;-78
2022/09/17 05:24:46;;;;;;;20.40;4.28;;;;;;;19.87;84.39;99330.88;5022604;28;20474;-79
2022/09/17 05:27:11;;;;;;;10.65;2.45;;;;;;;19.79;82.27;99278.91;5028725;28;20104;-78
2022/09/17 05:29:37;;;;;;;21.45;2.80;;;;;;;19.46;76.63;99196.47;5010146;28;20444;-79
2022/09/17 05:32:03;;;;;;;4.35;1.65;;;;;;;19.43;75.64;99193.13;5028011;28;20041;-79
2022/09/17 05:34:29;;;;;;;11.52;2.53;;;;;;;20.48;74.90;99322.03;5027995;28;20098;-79
2022/09/17 05:36:55;;;;;;;14.90;2.17;;;;;;;20.17;76.77;99214.59;5010152;28;20556;-79
2022/09/17 05:39:24;;;;;;;6.13;2.97;;;;;;;20.33;75.41;99195.91;5028524;28;20076;-78
2022/09/17 05:41:53;;;;;;;11.38;2.92;;;;;;;21.44;72.56;99310.06;5028220;28;20049;-78
2022/09/17 05:44:19;;;;;;;11.35;3.05;;;;;;;20.92;71.19;99206.56;5027619;28;20057;-79
2022/09/17 05:46:45;;;;;;;6.40;2.00;;;;;;;20.94;71.43;99210.00;5030486;28;20611;-78
2022/09/17 05:49:11;;;;;;;6.05;2.03;;;;;;;21.64;71.33;99335.50;5047588;28;20045;-78
2022/09/17 05:51:37;;;;;;;6.90;2.22;;;;;;;21.54;70.52;99339.72;5040396;28;20033;-78
2022/09/17 05:54:02;;;;;;;7.75;1.77;;;;;;;20.91;69.61;99199.53;5044582;28;20571;-77
2022/09/17 05:56:28;;;;;;;6.07;2.03;;;;;;;21.86;69.12;99340.34;5043711;28;20130;-78
2022/09/17 05:58:55;;;;;;;11.38;2.40;;;;;;;21.83;70.04;99335.19;5028689;28;20061;-79
2022/09/17 06:01:21;;;;;;;9.23;2.40;;;;;;;21.02;69.79;99201.50;5028460;28;20684;-78
2022/09/17 06:03:47;;;;;;;4.10;1.35;;;;;;;21.59;70.48;99329.59;5027703;28;20033;-78
2022/09/17 06:06:12;;;;;;;4.03;1.83;;;;;;;21.75;70.72;99325.94;5028142;28;20087;-79
2022/09/17 06:08:37;;;;;;;5.05;1.60;;;;;;;21.26;71.77;99256.00;5027812;28;20107;-78
2022/09/17 06:11:05;;;;;;;4.95;2.08;;;;;;;21.79;71.20;99340.84;5027480;28;20046;-78
2022/09/17 06:13:32;;;;;;;3.05;1.35;;;;;;;21.88;70.12;99327.75;5027344;28;20057;-78
2022/09/17 06:15:58;;;;;;;4.60;1.92;;;;;;;21.18;68.90;99241.44;5008707;28;20033;-79
2022/09/17 06:18:24;;;;;;;7.43;2.55;;;;;;;21.95;71.02;99343.38;5024803;28;20052;-80
2022/09/17 06:20:58;;;;;;;11.70;2.20;;;;;;;21.62;69.86;99264.47;5027309;28;20049;-78
2022/09/17 06:23:24;;;;;;;17.80;3.85;;;;;;;22.07;70.37;99346.13;5026495;28;20049;-78
2022/09/17 06:25:58;;;;;;;8.43;2.05;;;;;;;21.92;68.97;99339.94;5009323;28;20056;-79
2022/09/17 06:28:25;;;;;;;4.90;1.95;;;;;;;22.01;68.48;99359.00;5026413;28;20519;-78
2022/09/17 06:30:53;;;;;;;9.63;1.70;;;;;;;21.97;67.52;99350.34;5026875;28;20033;-78
2022/09/17 06:33:19;;;;;;;6.43;1.73;;;;;;;22.05;67.02;99345.34;5027111;28;20034;-78
2022/09/17 06:35:45;;;;;;;6.97;1.75;;;;;;;22.06;66.99;99309.69;5025735;28;20128;-78
2022/09/17 06:38:10;;;;;;;15.05;2.10;;;;;;;21.95;66.68;99271.25;5026811;28;20049;-79
2022/09/17 06:40:36;;;;;;;8.13;2.75;;;;;;;21.81;68.30;99224.09;5026874;28;20045;-77
2022/09/17 06:43:02;;;;;;;7.95;3.03;;;;;;;22.33;66.07;99331.06;5026329;28;20017;-79
2022/09/17 06:45:27;;;;;;;9.32;2.60;;;;;;;22.51;66.67;99325.47;5026604;28;20053;-79
2022/09/17 06:47:53;;;;;;;11.57;2.75;;;;;;;22.61;65.33;99325.72;4996707;28;20060;-79
2022/09/17 06:50:19;;;;;;;7.85;3.55;;;;;;;22.55;66.39;99306.47;5026749;28;20131;-80
2022/09/17 06:52:49;;;;;;;5.45;2.78;;;;;;;21.97;66.03;99190.06;5008869;28;20053;-80
2022/09/17 06:55:15;;;;;;;8.02;2.20;;;;;;;22.73;66.29;99327.56;5026371;28;20187;-80
2022/09/17 06:57:40;;;;;;;5.00;2.13;;;;;;;22.66;64.99;99331.59;5026650;28;20552;-77
2022/09/17 07:00:07;;;;;;;11.27;2.75;;;;;;;22.81;65.07;99327.06;5008965;28;20135;-80
2022/09/17 07:02:34;;;;;;;7.10;2.72;;;;;;;22.70;65.89;99301.03;5026500;28;20525;-79
2022/09/17 07:04:59;;;;;;;7.00;3.28;;;;;;;22.49;65.00;99252.53;5026823;28;20049;-80
2022/09/17 07:07:26;;;;;;;9.60;3.38;;;;;;;22.79;65.90;99287.03;5008457;28;20531;-79
2022/09/17 07:09:52;;;;;;;10.30;3.72;;;;;;;22.29;65.50;99200.44;5026276;28;20033;-79
2022/09/17 07:12:18;;;;;;;8.20;3.83;;;;;;;22.04;64.93;99180.69;5026904;28;20033;-78
2022/09/17 07:14:44;;;;;;;10.60;4.38;;;;;;;22.91;66.60;99323.63;5026185;28;20046;-80
2022/09/17 07:17:10;;;;;;;14.50;4.55;;;;;;;22.97;64.97;99327.72;5010735;28;20052;-78
2022/09/17 07:19:35;;;;;;;10.77;4.80;;;;;;;22.33;64.52;99237.53;5007011;28;20085;-78
2022/09/17 07:22:01;;;;;;;16.27;5.15;;;;;;;22.21;65.91;99222.31;5006861;28;20070;-79
2022/09/17 07:24:26;;;;;;;22.27;6.93;;;;;;;22.22;65.64;99217.81;5019871;28;20033;-80
2022/09/17 07:26:59;;;;;;;19.60;6.38;;;;;;;22.00;65.93;99181.84;5026075;28;20678;-78
2022/09/17 07:29:26;;;;;;;;;;;;;;;22.76;65.22;99330.03;5026398;28;20115;-78
2022/09/17 07:31:52;;;;;;;6.50;3.22;;;;;;;21.87;65.70;99192.50;5026240;28;19921;-79
2022/09/17 07:34:17;;;;;;;8.40;4.05;;;;;;;22.04;67.75;99233.25;5026354;28;20153;-79
2022/09/17 07:36:43;;;;;;;6.65;2.85;;;;;;;21.90;67.87;99168.25;5026655;28;20489;-79
2022/09/17 07:39:10;;;;;;;9.30;3.47;;;;;;;22.40;67.48;99210.38;5008348;28;20060;-79
2022/09/17 07:41:36;;;;;;;12.63;4.43;;;;;;;23.01;67.66;99281.06;5026196;28;20046;-78
2022/09/17 07:44:02;;;;;;;20.15;4.60;;;;;;;22.85;66.50;99305.34;5016176;28;20046;-79
2022/09/17 07:46:28;;;;;;;15.45;5.50;;;;;;;22.75;67.47;99266.78;4999270;28;20073;-78
2022/09/17 07:48:54;;;;;;;18.10;3.97;;;;;;;22.54;67.59;99227.19;4986688;28;20046;-80
2022/09/17 07:51:24;;;;;;;11.45;4.35;;;;;;;22.82;66.73;99289.47;4987655;28;20554;-79
2022/09/17 07:53:59;;;;;;;8.63;5.03;;;;;;;22.71;66.67;99292.91;4970922;28;20050;-80
2022/09/17 07:56:26;;;;;;;6.75;3.75;;;;;;;22.91;67.43;99298.69;5005978;28;20045;-79
2022/09/17 07:58:52;;;;;;;7.95;3.97;;;;;;;22.85;66.87;99267.00;5006151;28;20049;-80
2022/09/17 08:01:19;;;;;;;8.00;5.10;;;;;;;23.07;65.21;99302.06;5006370;28;20427;-79
2022/09/17 08:03:52;;;;;;;8.25;3.88;;;;;;;23.04;64.29;99290.69;4988479;28;20112;-79
2022/09/17 08:06:24;;;;;;;13.00;4.20;;;;;;;22.77;63.34;99264.88;4988918;28;20034;-80
2022/09/17 08:08:50;;;;;;;12.75;3.75;;;;;;;22.71;63.89;99262.59;5005942;28;20064;-79
2022/09/17 08:11:21;;;;;;;10.75;3.70;;;;;;;22.99;63.77;99277.63;5006212;28;20457;-79
2022/09/17 08:13:50;;;;;;;9.32;4.75;;;;;;;23.13;63.26;99255.25;5006251;28;20045;-79
2022/09/17 08:16:16;;;;;;;10.00;3.97;;;;;;;23.26;62.90;99274.84;5001160;28;20054;-80
2022/09/17 08:18:43;;;;;;;10.60;6.30;;;;;;;23.18;63.50;99234.41;4985433;28;20038;-76
2022/09/17 08:21:13;;;;;;;24.02;5.57;;;;;;;22.83;63.62;99170.84;4988111;28;20052;-80
2022/09/17 08:23:40;;;;;;;9.98;4.95;;;;;;;23.21;64.16;99263.63;5005968;28;20136;-77
2022/09/17 08:26:10;;;;;;;20.30;6.28;;;;;;;23.45;64.61;99269.03;5006319;28;20104;-79
2022/09/17 08:28:35;;;;;;;13.10;5.78;;;;;;;22.64;64.09;99127.63;5008310;28;20057;-79
2022/09/17 08:31:04;;;;;;;11.73;4.35;;;;;;;23.00;65.07;99168.81;5029199;28;20038;-80
2022/09/17 08:33:34;;;;;;;16.40;5.25;;;;;;;23.72;63.52;99276.91;5030036;28;20022;-80
2022/09/17 08:36:01;;;;;;;16.35;6.15;;;;;;;23.56;62.38;99253.06;5020949;28;20171;-79
2022/09/17 08:38:28;;;;;;;10.25;3.95;;;;;;;23.65;62.32;99274.78;5009616;28;20077;-79
2022/09/17 08:41:09;;;;;;;12.43;3.80;;;;;;;23.85;61.83;99282.25;5009215;28;20067;-82
2022/09/17 08:43:39;;;;;;;17.77;3.25;;;;;;;23.18;61.86;99148.78;5009791;28;20058;-81
2022/09/17 08:46:08;;;;;;;11.35;5.38;;;;;;;23.57;62.20;99219.94;4990727;28;20049;-79
2022/09/17 08:48:43;;;;;;;11.43;4.30;;;;;;;23.41;63.07;99160.44;5009838;28;20046;-78
2022/09/17 08:51:33;;;;;;;13.95;5.00;;;;;;;24.10;62.00;99286.66;4992626;28;20096;-78
2022/09/17 08:54:19;;;;;;;17.95;6.85;;;;;;;24.22;62.28;99280.38;5024019;28;20049;-79
2022/09/17 08:56:49;;;;;;;14.73;4.40;;;;;;;24.04;60.97;99252.28;5000337;28;20085;-80
2022/09/17 08:59:24;;;;;;;14.50;3.85;;;;;;;23.91;61.45;99246.97;5009627;28;20077;-81
2022/09/17 09:01:49;;;;;;;10.13;3.35;;;;;;;23.86;61.65;99275.06;4991722;28;20046;-80
2022/09/17 09:04:57;;;;;;;9.40;3.70;;;;;;;23.56;61.25;99174.56;5008987;28;20513;-79
2022/09/17 09:07:28;;;;;;;9.32;4.22;;;;;;;24.14;60.56;99277.44;5008763;28;20096;-80
2022/09/17 09:10:03;;;;;;;10.70;3.35;;;;;;;24.29;60.56;99302.25;5008731;28;20312;-80
2022/09/17 09:12:33;;;;;;;9.50;3.58;;;;;;;23.64;61.53;99173.97;5009291;28;20029;-80
2022/09/17 09:15:07;;;;;;;13.48;3.72;;;;;;;24.17;61.48;99279.88;5008559;28;20046;-80
2022/09/17 09:17:45;;;;;;;7.07;3.50;;;;;;;24.20;62.39;99287.69;5003389;28;20054;-79
2022/09/17 09:20:28;;;;;;;12.70;4.15;;;;;;;24.10;60.36;99248.28;5006908;28;20088;-79
2022/09/17 09:22:56;;;;;;;11.18;4.00;;;;;;;24.50;60.33;99312.38;5008393;28;20057;-79
2022/09/17 09:25:25;;;;;;;23.20;4.72;;;;;;;24.62;60.87;99339.09;5007810;28;20528;-79
2022/09/17 09:28:34;;;;;;;7.47;3.05;;;;;;;24.52;59.81;99321.16;5008577;28;20034;-79
2022/09/17 09:31:25;;;;;;;12.82;4.40;;;;;;;24.34;60.13;99277.75;5008636;28;20072;-79
2022/09/17 09:33:51;;;;;;;14.85;5.60;;;;;;;23.90;58.99;99213.09;4988638;28;20042;-80
2022/09/17 09:36:20;;;;;;;12.55;4.15;;;;;;;23.78;59.22;99214.88;4994249;28;20076;-80
2022/09/17 09:39:01;;;;;;;11.65;5.40;;;;;;;24.66;59.80;99361.19;5008170;28;20525;-81
2022/09/17 09:41:42;;;;;;;21.85;3.75;;;;;;;23.93;63.09;99234.34;5008644;28;20486;-81
2022/09/17 09:44:12;;;;;;;12.50;4.47;;;;;;;23.88;65.42;99243.66;5011769;28;20061;-80
2022/09/17 09:46:59;;;;;;;13.65;3.90;;;;;;;24.48;65.86;99354.53;5020077;28;20050;-79
2022/09/17 09:50:07;;;;;;;7.25;3.33;;;;;;;24.44;66.43;99349.38;5008335;28;20152;-79
2022/09/17 09:52:38;;;;;;;10.88;5.15;;;;;;;24.23;66.67;99332.19;4946802;29;20558;-78
2022/09/17 09:55:22;;;;;;;16.00;5.00;;;;;;;23.61;66.43;99244.69;4958273;28;20046;-79
2022/09/17 09:57:55;;;;;;;6.75;2.97;;;;;;;24.07;66.32;99299.44;4975895;28;20768;-79
2022/09/17 10:00:36;;;;;;;12.32;4.65;;;;;;;24.14;65.07;99320.34;4990747;28;20462;-79
2022/09/17 10:03:19;;;;;;;9.10;3.33;;;;;;;24.25;64.84;99332.06;5007098;28;20046;-80
2022/09/17 10:06:03;;;;;;;11.88;4.80;;;;;;;24.32;64.87;99333.31;5007920;28;20136;-79
2022/09/17 10:08:32;;;;;;;8.40;4.63;;;;;;;23.88;65.70;99290.09;5008064;28;20649;-82
2022/09/17 10:11:10;;;;;;;10.48;3.45;;;;;;;24.13;65.79;99301.66;5007659;28;20038;-80
2022/09/17 10:13:36;;;;;;;10.60;3.88;;;;;;;23.39;65.34;99186.50;5027762;28;20049;-81
2022/09/17 10:16:23;;;;;;;11.52;4.55;;;;;;;24.20;66.41;99319.00;5026335;28;20306;-79
2022/09/17 10:18:50;;;;;;;6.03;3.75;;;;;;;23.51;65.99;99211.53;5008056;28;20167;-80
2022/09/17 10:21:29;;;;;;;14.50;4.15;;;;;;;24.19;65.63;99328.88;5027522;28;20493;-81
2022/09/17 10:23:55;;;;;;;5.85;3.60;;;;;;;24.14;66.11;99330.16;5027045;28;20080;-79
2022/09/17 10:26:29;;;;;;;8.23;4.13;;;;;;;24.01;65.66;99317.69;5009122;28;20046;-78
2022/09/17 10:28:57;;;;;;;6.30;3.47;;;;;;;23.88;66.49;99284.72;5027396;28;20223;-80
2022/09/17 10:31:23;;;;;;;12.98;3.65;;;;;;;23.28;65.32;99157.81;5027705;28;20102;-79
2022/09/17 10:34:01;;;;;;;7.70;3.83;;;;;;;24.10;63.67;99286.66;5009430;28;20395;-80
2022/09/17 10:36:37;;;;;;;10.05;3.90;;;;;;;24.31;65.06;99297.63;5027995;28;20037;-79
2022/09/17 10:39:33;;;;;;;11.32;3.38;;;;;;;24.10;64.82;99292.03;5026850;28;20516;-80
2022/09/17 10:42:03;;;;;;;7.95;3.78;;;;;;;22.06;64.43;98950.84;5010310;28;20072;-79
2022/09/17 10:44:31;;;;;;;6.03;2.60;;;;;;;23.80;64.54;99244.22;5027104;28;20063;-81
2022/09/17 10:47:02;;;;;;;12.00;3.05;;;;;;;23.92;65.09;99310.31;5015799;28;20137;-81
2022/09/17 10:49:40;;;;;;;6.82;2.70;;;;;;;24.00;64.65;99307.94;4989808;28;20038;-79
2022/09/17 10:52:25;;;;;;;8.10;2.72;;;;;;;23.71;64.77;99248.41;5007159;28;20112;-80
2022/09/17 10:54:50;;;;;;;6.60;2.88;;;;;;;23.81;64.32;99294.16;5017359;28;20044;-79
2022/09/17 10:57:26;;;;;;;8.25;3.22;;;;;;;23.70;63.76;99286.88;5028117;28;20021;-78
2022/09/17 11:00:06;;;;;;;8.77;3.38;;;;;;;23.33;64.49;99211.03;5027231;28;20125;-79
2022/09/17 11:02:44;;;;;;;4.93;2.67;;;;;;;24.10;63.77;99320.66;5027559;28;20109;-78
2022/09/17 11:05:27;;;;;;;5.60;3.28;;;;;;;24.17;64.93;99308.53;5027807;28;20126;-76
2022/09/17 11:08:06;;;;;;;9.23;3.60;;;;;;;24.10;65.77;99320.66;5028246;28;20049;-80
2022/09/17 11:11:14;;;;;;;8.13;3.03;;;;;;;24.10;64.61;99301.91;5026716;28;20129;-79
2022/09/17 11:13:47;;;;;;;9.27;3.30;;;;;;;23.50;64.58;99212.47;5027417;28;20049;-77
2022/09/17 11:16:27;;;;;;;6.68;3.08;;;;;;;23.92;65.67;99304.09;5023897;28;20077;-80
2022/09/17 11:19:36;;;;;;;13.43;2.90;;;;;;;23.22;65.67;99194.88;5004580;28;20057;-80
2022/09/17 11:22:16;;;;;;;11.00;4.00;;;;;;;24.05;65.30;99321.00;5007425;28;20034;-80
2022/09/17 11:25:06;;;;;;;7.10;2.72;;;;;;;23.78;65.68;99228.25;5021750;28;20042;-79
2022/09/17 11:27:59;;;;;;;8.93;3.20;;;;;;;23.69;66.26;99282.47;5008882;28;20076;-79
2022/09/17 11:30:31;;;;;;;8.23;2.80;;;;;;;23.69;65.26;99268.22;5008776;28;20053;-79
2022/09/17 11:33:29;;;;;;;7.15;4.30;;;;;;;24.02;65.38;99295.28;5026788;28;20045;-78
2022/09/17 11:36:03;;;;;;;12.25;3.33;;;;;;;23.92;64.95;99301.41;5026406;28;20050;-81
2022/09/17 11:38:55;;;;;;;7.28;4.13;;;;;;;23.98;64.78;99293.78;5008596;28;20091;-81
2022/09/17 11:41:28;;;;;;;5.28;3.22;;;;;;;24.02;64.64;99278.31;5026535;28;20049;-80
2022/09/17 11:43:56;;;;;;;5.30;2.05;;;;;;;23.68;66.40;99312.94;5008485;28;20497;-79
2022/09/17 11:46:28;;;;;;;8.70;3.35;;;;;;;23.86;65.88;99324.19;5022185;28;20096;-82
2022/09/17 11:49:04;;;;;;;8.57;3.28;;;;;;;23.24;65.96;99215.22;5006747;28;20482;-80
2022/09/17 11:51:53;;;;;;;5.25;2.90;;;;;;;23.33;66.65;99211.03;5021923;28;20148;-76
2022/09/17 11:54:48;;;;;;;8.65;3.45;;;;;;;23.97;66.71;99334.09;5034710;28;20058;-80